Time;durP1;ratioP1;P1;durP2;ratioP2;P2;SDS_P1;SDS_P2;PMS_P1;PMS_P2;Temp;Humidity;BMP_temperature;BMP_pressure;BME280_temperature;BME280_humidity;BME280_pressure;Samples;Min_cycle;Max_cycle;Signal;HPM_P1;HPM_P2
2023/03/24 00:02:27;;;;;;;0.00;0.00;;;11.50;99.90;;;;;;5038517;28;20051;-81
2023/03/24 00:04:57;;;;;;;0.10;0.10;;;11.40;99.90;;;;;;5054365;28;20520;-81
2023/03/24 00:07:24;;;;;;;18.20;1.40;;;11.40;99.90;;;;;;5055424;28;20059;-81
2023/03/24 00:09:49;;;;;;;0.00;0.00;;;11.40;99.90;;;;;;5056018;28;20150;-81
2023/03/24 00:12:17;;;;;;;0.00;0.00;;;11.40;99.90;;;;;;5038500;28;20489;-81
2023/03/24 00:14:45;;;;;;;0.10;0.03;;;11.40;99.90;;;;;;5054669;28;20547;-81
2023/03/24 00:17:12;;;;;;;0.00;0.00;;;11.40;99.90;;;;;;5055073;28;20092;-82
2023/03/24 00:19:39;;;;;;;0.88;0.00;;;11.40;99.90;;;;;;5054719;28;20045;-82
2023/03/24 00:22:13;;;;;;;0.00;0.00;;;11.40;99.90;;;;;;5054826;28;20045;-82
2023/03/24 00:24:39;;;;;;;0.10;0.00;;;11.30;99.90;;;;;;5054593;28;20053;-82
2023/03/24 00:27:06;;;;;;;0.00;0.00;;;11.40;99.90;;;;;;5054111;28;20045;-82
2023/03/24 00:29:32;;;;;;;0.65;0.52;;;11.40;99.90;;;;;;5022306;28;20126;-82
2023/03/24 00:31:58;;;;;;;0.00;0.00;;;11.30;99.90;;;;;;5054551;28;20084;-82
2023/03/24 00:34:24;;;;;;;2.33;1.00;;;11.30;99.90;;;;;;5037889;28;20041;-82
2023/03/24 00:36:51;;;;;;;0.10;0.10;;;11.30;99.90;;;;;;5054611;28;20098;-82
2023/03/24 00:39:18;;;;;;;0.00;0.00;;;11.30;99.90;;;;;;5054721;28;20045;-82
2023/03/24 00:41:46;;;;;;;0.00;0.00;;;11.30;99.90;;;;;;5038020;28;20045;-82
2023/03/24 00:44:16;;;;;;;0.10;0.10;;;11.30;99.90;;;;;;5054192;28;20068;-82
2023/03/24 00:46:56;;;;;;;0.00;0.00;;;11.30;99.90;;;;;;5054250;28;20063;-82
2023/03/24 00:49:43;;;;;;;0.10;0.10;;;11.30;99.90;;;;;;5037983;28;20154;-82
2023/03/24 00:52:19;;;;;;;0.00;0.00;;;11.30;99.90;;;;;;5053890;28;20540;-81
2023/03/24 00:54:51;;;;;;;0.10;0.00;;;11.30;99.90;;;;;;5053808;28;20460;-82
2023/03/24 00:57:21;;;;;;;0.20;0.20;;;11.30;99.90;;;;;;5036777;28;20064;-82
2023/03/24 00:59:53;;;;;;;0.20;0.20;;;11.30;99.90;;;;;;5054059;28;20067;-81
2023/03/24 01:02:23;;;;;;;0.00;0.00;;;11.30;99.90;;;;;;5053748;28;20056;-81
2023/03/24 01:04:55;;;;;;;0.43;0.20;;;11.30;99.90;;;;;;5053782;28;20485;-81
2023/03/24 01:07:22;;;;;;;3.20;0.10;;;11.30;99.90;;;;;;5053716;28;20049;-82
2023/03/24 01:09:56;;;;;;;0.10;0.10;;;11.30;99.90;;;;;;5053521;28;20049;-82
2023/03/24 01:12:26;;;;;;;0.00;0.00;;;11.30;99.90;;;;;;5053923;28;20400;-82
2023/03/24 01:14:52;;;;;;;0.00;0.00;;;11.30;99.90;;;;;;5053595;28;20489;-82
2023/03/24 01:17:21;;;;;;;0.00;0.00;;;11.30;99.90;;;;;;5053688;28;20202;-82
2023/03/24 01:19:47;;;;;;;0.70;0.20;;;11.30;99.90;;;;;;5037077;28;20051;-82
2023/03/24 01:22:14;;;;;;;8.40;0.45;;;11.40;99.90;;;;;;5020608;28;20041;-82
2023/03/24 01:24:40;;;;;;;0.10;0.00;;;11.40;99.90;;;;;;5053889;28;20041;-82
2023/03/24 01:27:05;;;;;;;0.00;0.00;;;11.30;99.90;;;;;;5053151;28;20102;-82
2023/03/24 01:29:31;;;;;;;0.00;0.00;;;11.40;99.90;;;;;;5020429;28;20531;-82
2023/03/24 01:31:57;;;;;;;0.00;0.00;;;11.40;99.90;;;;;;5053310;28;20132;-83
2023/03/24 01:34:23;;;;;;;0.00;0.00;;;11.40;99.90;;;;;;5054315;28;20048;-82
2023/03/24 01:36:49;;;;;;;0.00;0.00;;;11.40;99.90;;;;;;5036590;28;20052;-82
2023/03/24 01:39:15;;;;;;;0.03;0.03;;;11.40;99.90;;;;;;5036848;28;20047;-82
2023/03/24 01:41:41;;;;;;;0.00;0.00;;;11.40;99.90;;;;;;5053559;28;20127;-82
2023/03/24 01:44:36;;;;;;;0.10;0.10;;;11.40;99.90;;;;;;5020110;28;20041;-82
2023/03/24 01:47:05;;;;;;;0.00;0.00;;;11.40;99.90;;;;;;5036623;28;20087;-83
2023/03/24 01:49:42;;;;;;;0.00;0.00;;;11.50;99.90;;;;;;5053084;28;20051;-82
2023/03/24 01:52:23;;;;;;;0.05;0.03;;;11.40;99.90;;;;;;5052858;28;20055;-81
2023/03/24 01:55:06;;;;;;;0.00;0.00;;;11.50;99.90;;;;;;5053280;28;20053;-82
2023/03/24 01:57:34;;;;;;;0.20;0.00;;;11.40;99.90;;;;;;5052352;28;20079;-82
2023/03/24 02:00:06;;;;;;;0.00;0.00;;;11.50;99.90;;;;;;5052894;28;20092;-82
2023/03/24 02:02:34;;;;;;;0.00;0.00;;;11.50;99.90;;;;;;5053476;28;20055;-82
2023/03/24 02:05:06;;;;;;;0.00;0.00;;;11.40;99.90;;;;;;5036273;28;20051;-81
2023/03/24 02:08:00;;;;;;;0.10;0.10;;;11.50;99.90;;;;;;5052523;28;20049;-82
2023/03/24 02:10:26;;;;;;;0.05;0.03;;;11.50;99.90;;;;;;5036359;28;20053;-82
2023/03/24 02:12:52;;;;;;;0.10;0.10;;;11.50;99.90;;;;;;5052810;28;20110;-82
2023/03/24 02:15:19;;;;;;;0.10;0.10;;;11.50;99.90;;;;;;5019568;28;20481;-81
2023/03/24 02:18:02;;;;;;;0.10;0.10;;;11.50;99.90;;;;;;5052643;28;20049;-81
2023/03/24 02:20:56;;;;;;;0.22;0.22;;;11.50;99.90;;;;;;5052470;28;20087;-81
2023/03/24 02:23:59;;;;;;;0.00;0.00;;;11.50;99.90;;;;;;5035771;28;20080;-82
2023/03/24 02:26:48;;;;;;;0.10;0.10;;;11.60;99.90;;;;;;5051946;28;20084;-83
2023/03/24 02:29:32;;;;;;;0.00;0.00;;;11.60;99.90;;;;;;5053552;28;20049;-82
2023/03/24 02:32:06;;;;;;;0.00;0.00;;;11.60;99.90;;;;;;5052541;28;20136;-82
2023/03/24 02:35:00;;;;;;;10.25;1.25;;;11.60;99.90;;;;;;5052630;28;20052;-82
2023/03/24 02:37:55;;;;;;;0.00;0.00;;;11.60;99.90;;;;;;5052391;28;20060;-82
2023/03/24 02:40:31;;;;;;;0.00;0.00;;;11.70;99.90;;;;;;5039512;28;20505;-83
2023/03/24 02:43:38;;;;;;;0.00;0.00;;;11.70;99.90;;;;;;5052231;28;20053;-82
2023/03/24 02:46:16;;;;;;;1.40;0.63;;;11.60;99.90;;;;;;5006857;28;20059;-83
2023/03/24 02:49:07;;;;;;;0.88;0.05;;;11.70;99.90;;;;;;5051946;28;20041;-82
2023/03/24 02:52:21;;;;;;;0.00;0.00;;;11.70;99.90;;;;;;5052407;28;20102;-82
2023/03/24 02:55:04;;;;;;;0.00;0.00;;;11.70;99.90;;;;;;5017742;28;20049;-82
2023/03/24 02:57:50;;;;;;;0.08;0.08;;;11.70;99.90;;;;;;5051719;28;20049;-82
2023/03/24 03:00:31;;;;;;;0.00;0.00;;;11.70;99.90;;;;;;5052137;28;20045;-82
2023/03/24 03:03:14;;;;;;;0.00;0.00;;;11.70;99.90;;;;;;5052582;28;20087;-82
2023/03/24 03:05:46;;;;;;;0.00;0.00;;;11.70;99.90;;;;;;5051733;28;20045;-82
2023/03/24 03:08:16;;;;;;;0.00;0.00;;;11.70;99.90;;;;;;5052420;28;20163;-82
2023/03/24 03:10:45;;;;;;;0.00;0.00;;;11.70;99.90;;;;;;5051821;28;20122;-83
2023/03/24 03:13:18;;;;;;;0.10;0.10;;;11.70;99.90;;;;;;5052073;28;20060;-81
2023/03/24 03:15:49;;;;;;;0.05;0.00;;;11.70;99.90;;;;;;5052321;28;20064;-81
2023/03/24 03:18:38;;;;;;;0.00;0.00;;;11.70;99.90;;;;;;5052195;28;20489;-81
2023/03/24 03:21:09;;;;;;;0.15;0.15;;;11.70;99.90;;;;;;5052094;28;20375;-82
2023/03/24 03:23:39;;;;;;;0.90;0.38;;;11.80;99.90;;;;;;5052296;28;20040;-82
2023/03/24 03:26:11;;;;;;;0.20;0.15;;;11.80;99.90;;;;;;5051288;28;20048;-81
2023/03/24 03:28:42;;;;;;;0.00;0.00;;;11.80;99.90;;;;;;5051964;28;20478;-81
2023/03/24 03:31:13;;;;;;;0.00;0.00;;;11.80;99.90;;;;;;5052138;28;20072;-81
2023/03/24 03:33:52;;;;;;;2.38;0.55;;;11.80;99.90;;;;;;5051839;28;20124;-82
2023/03/24 03:36:28;;;;;;;0.00;0.00;;;11.80;99.90;;;;;;5053348;28;20049;-82
2023/03/24 03:39:10;;;;;;;0.00;0.00;;;11.70;99.90;;;;;;5037231;28;20094;-82
2023/03/24 03:41:37;;;;;;;0.00;0.00;;;11.80;99.90;;;;;;5055552;28;20045;-82
2023/03/24 03:44:02;;;;;;;0.17;0.17;;;11.80;99.90;;;;;;5055245;28;20045;-81
2023/03/24 03:46:28;;;;;;;0.10;0.10;;;11.80;99.90;;;;;;5055564;28;20048;-81
2023/03/24 03:48:54;;;;;;;0.00;0.00;;;11.80;99.90;;;;;;5055695;28;20088;-81
2023/03/24 03:51:20;;;;;;;0.00;0.00;;;11.80;99.90;;;;;;5038976;28;20045;-81
2023/03/24 03:53:57;;;;;;;0.13;0.13;;;11.80;99.90;;;;;;5054915;28;20053;-82
2023/03/24 03:56:27;;;;;;;0.00;0.00;;;11.80;99.90;;;;;;5054597;28;20057;-81
2023/03/24 03:58:53;;;;;;;0.00;0.00;;;11.80;99.90;;;;;;5054970;28;20084;-81
2023/03/24 04:01:24;;;;;;;1.45;0.52;;;11.90;99.90;;;;;;5038305;28;20161;-81
2023/03/24 04:04:05;;;;;;;0.00;0.00;;;11.90;99.90;;;;;;5055385;28;20452;-81
2023/03/24 04:06:52;;;;;;;0.40;0.40;;;11.90;99.90;;;;;;5054969;28;20052;-81
2023/03/24 04:09:30;;;;;;;0.00;0.00;;;11.80;99.90;;;;;;5055082;28;20052;-81
2023/03/24 04:12:34;;;;;;;0.00;0.00;;;11.80;99.90;;;;;;5054998;28;20056;-81
2023/03/24 04:15:24;;;;;;;0.00;0.00;;;11.70;99.90;;;;;;4994304;28;20141;-81
2023/03/24 04:18:13;;;;;;;0.00;0.00;;;11.60;99.90;;;;;;4962461;28;20050;-81
2023/03/24 04:21:01;;;;;;;0.75;0.50;;;11.50;99.90;;;;;;5015944;28;20052;-81
2023/03/24 04:23:40;;;;;;;4.57;0.25;;;11.50;99.90;;;;;;5054860;28;20432;-80
2023/03/24 04:26:33;;;;;;;0.00;0.00;;;11.40;99.90;;;;;;5037534;28;20044;-80
2023/03/24 04:29:24;;;;;;;0.00;0.00;;;11.40;99.90;;;;;;5054825;28;20053;-80
2023/03/24 04:32:13;;;;;;;0.17;0.05;;;11.20;99.90;;;;;;5054633;28;20401;-80
2023/03/24 04:34:44;;;;;;;0.00;0.00;;;11.20;99.90;;;;;;5054767;28;20135;-80
2023/03/24 04:37:18;;;;;;;0.05;0.05;;;11.10;99.90;;;;;;5054646;28;20049;-80
2023/03/24 04:39:47;;;;;;;0.00;0.00;;;10.90;99.90;;;;;;5054433;28;20083;-80
2023/03/24 04:42:18;;;;;;;0.20;0.20;;;10.90;99.90;;;;;;5054324;28;20233;-80
2023/03/24 04:44:44;;;;;;;0.00;0.00;;;10.80;99.90;;;;;;5054771;28;20392;-80
2023/03/24 04:47:11;;;;;;;0.00;0.00;;;10.80;99.90;;;;;;5054308;28;20428;-79
2023/03/24 04:49:38;;;;;;;0.00;0.00;;;10.70;99.90;;;;;;5053642;28;20045;-80
2023/03/24 04:52:05;;;;;;;0.00;0.00;;;10.70;99.90;;;;;;5054009;28;20063;-80
2023/03/24 04:54:31;;;;;;;0.00;0.00;;;10.60;99.90;;;;;;5054115;28;20531;-79
2023/03/24 04:57:00;;;;;;;0.00;0.00;;;10.60;99.90;;;;;;5036774;28;20044;-80
2023/03/24 04:59:27;;;;;;;0.00;0.00;;;10.60;99.90;;;;;;5038087;28;20132;-79
2023/03/24 05:01:53;;;;;;;0.00;0.00;;;10.60;99.90;;;;;;5037736;28;20127;-80
2023/03/24 05:04:21;;;;;;;0.00;0.00;;;10.50;99.90;;;;;;5053893;28;20474;-80
2023/03/24 05:06:48;;;;;;;0.00;0.00;;;10.40;99.90;;;;;;5053970;28;20136;-79
2023/03/24 05:09:20;;;;;;;0.00;0.00;;;10.40;99.90;;;;;;5053717;28;20055;-80
2023/03/24 05:11:46;;;;;;;0.08;0.00;;;10.40;99.90;;;;;;5053766;28;20052;-80
2023/03/24 05:14:12;;;;;;;0.25;0.00;;;10.30;99.90;;;;;;5037179;28;20044;-80
2023/03/24 05:16:38;;;;;;;0.00;0.00;;;10.40;99.90;;;;;;5053880;28;20493;-79
2023/03/24 05:19:04;;;;;;;0.00;0.00;;;10.30;99.90;;;;;;5070456;28;20044;-79
2023/03/24 05:21:30;;;;;;;0.22;0.10;;;10.30;99.90;;;;;;5036925;28;20477;-79
2023/03/24 05:23:56;;;;;;;0.10;0.10;;;10.30;99.90;;;;;;5053678;28;20054;-79
2023/03/24 05:26:22;;;;;;;0.00;0.00;;;10.30;99.90;;;;;;5036160;28;20045;-80
2023/03/24 05:28:47;;;;;;;0.00;0.00;;;10.30;99.90;;;;;;5054585;28;20052;-79
2023/03/24 05:31:13;;;;;;;0.00;0.00;;;10.30;99.90;;;;;;5054374;28;20053;-79
2023/03/24 05:33:39;;;;;;;0.08;0.08;;;10.30;99.90;;;;;;5053621;28;20051;-79
2023/03/24 05:36:05;;;;;;;0.65;0.35;;;10.30;99.90;;;;;;5036799;28;20053;-80
2023/03/24 05:38:31;;;;;;;0.00;0.00;;;10.20;99.90;;;;;;5036719;28;20135;-80
2023/03/24 05:40:58;;;;;;;1.45;0.30;;;10.20;99.90;;;;;;5054090;28;20064;-80
2023/03/24 05:43:24;;;;;;;0.00;0.00;;;10.20;99.90;;;;;;5020511;28;20084;-79
2023/03/24 05:45:49;;;;;;;2.90;0.63;;;10.20;99.90;;;;;;5036461;28;20083;-79
2023/03/24 05:48:15;;;;;;;0.08;0.08;;;10.20;99.90;;;;;;5053593;28;20470;-80
2023/03/24 05:50:41;;;;;;;0.00;0.00;;;10.20;99.90;;;;;;5053064;28;20070;-80
2023/03/24 05:53:07;;;;;;;0.00;0.00;;;10.20;99.90;;;;;;5052790;28;20049;-80
2023/03/24 05:55:33;;;;;;;0.00;0.00;;;10.10;99.90;;;;;;5036282;28;20071;-80
2023/03/24 05:58:00;;;;;;;0.00;0.00;;;10.10;99.90;;;;;;5035932;28;20066;-80
2023/03/24 06:00:29;;;;;;;0.10;0.00;;;10.00;99.90;;;;;;5052866;28;20045;-80
2023/03/24 06:02:55;;;;;;;0.00;0.00;;;10.00;99.90;;;;;;5036613;28;20052;-80
2023/03/24 06:05:21;;;;;;;0.00;0.00;;;10.00;99.90;;;;;;5036289;28;20083;-80
2023/03/24 06:07:46;;;;;;;0.00;0.00;;;10.00;99.90;;;;;;5069273;28;20483;-80
2023/03/24 06:10:13;;;;;;;0.08;0.00;;;9.90;99.90;;;;;;5052641;28;20064;-80
2023/03/24 06:12:40;;;;;;;0.00;0.00;;;10.00;99.90;;;;;;5052699;28;20045;-80
2023/03/24 06:15:07;;;;;;;0.10;0.00;;;10.00;99.90;;;;;;5036279;28;20045;-80
2023/03/24 06:17:33;;;;;;;0.10;0.10;;;10.00;99.90;;;;;;5003403;28;20052;-80
2023/03/24 06:20:04;;;;;;;0.00;0.00;;;10.00;99.90;;;;;;5052595;28;20040;-80
2023/03/24 06:22:33;;;;;;;0.00;0.00;;;10.20;99.90;;;;;;5052730;28;20061;-80
2023/03/24 06:24:59;;;;;;;10.43;1.75;;;10.30;99.90;;;;;;5052714;28;20138;-80
2023/03/24 06:27:29;;;;;;;0.20;0.00;;;10.30;99.90;;;;;;5052167;28;20095;-81
2023/03/24 06:29:56;;;;;;;0.00;0.00;;;10.30;99.90;;;;;;5035953;28;20045;-79
2023/03/24 06:32:22;;;;;;;1.55;0.57;;;10.30;99.90;;;;;;5052900;28;20055;-80
2023/03/24 06:34:48;;;;;;;0.00;0.00;;;10.30;99.90;;;;;;5035986;28;20049;-80
2023/03/24 06:37:14;;;;;;;0.00;0.00;;;10.30;99.90;;;;;;5035669;28;20401;-80
2023/03/24 06:39:40;;;;;;;0.20;0.20;;;10.40;99.90;;;;;;5053331;28;20615;-79
2023/03/24 06:42:06;;;;;;;0.10;0.10;;;10.40;99.90;;;;;;5029455;28;20121;-80
2023/03/24 06:44:32;;;;;;;0.38;0.38;;;10.40;99.90;;;;;;4999862;28;20088;-80
2023/03/24 06:46:58;;;;;;;0.00;0.00;;;10.40;99.90;;;;;;5032167;28;20081;-79
2023/03/24 06:49:24;;;;;;;0.05;0.00;;;10.40;99.90;;;;;;5031983;28;20052;-80
2023/03/24 06:51:50;;;;;;;0.00;0.00;;;10.40;99.90;;;;;;5015625;28;20056;-80
2023/03/24 06:54:16;;;;;;;0.08;0.08;;;10.40;99.90;;;;;;5032091;28;20061;-79
2023/03/24 06:56:42;;;;;;;0.10;0.10;;;10.40;99.90;;;;;;5031904;28;20059;-79
2023/03/24 06:59:09;;;;;;;0.00;0.00;;;10.50;99.90;;;;;;5015828;28;20049;-79
2023/03/24 07:01:36;;;;;;;0.00;0.00;;;10.80;99.90;;;;;;5032446;28;20056;-80
2023/03/24 07:04:02;;;;;;;0.00;0.00;;;10.90;99.90;;;;;;5015849;28;20045;-84
2023/03/24 07:06:28;;;;;;;0.00;0.00;;;11.30;99.90;;;;;;5015834;28;20057;-81
2023/03/24 07:08:55;;;;;;;0.00;0.00;;;11.60;99.90;;;;;;5032292;28;20053;-81
2023/03/24 07:11:21;;;;;;;3.95;0.95;;;11.70;99.90;;;;;;5032248;28;20103;-80
2023/03/24 07:13:46;;;;;;;0.00;0.00;;;11.80;99.90;;;;;;5030705;28;20048;-81
2023/03/24 07:16:12;;;;;;;0.00;0.00;;;11.70;99.90;;;;;;5034862;28;20041;-81
2023/03/24 07:18:38;;;;;;;0.00;0.00;;;11.60;99.90;;;;;;5017194;28;20049;-81
2023/03/24 07:21:04;;;;;;;0.00;0.00;;;11.40;99.90;;;;;;5002219;28;20045;-81
2023/03/24 07:23:31;;;;;;;0.32;0.32;;;11.30;99.90;;;;;;5037582;28;20114;-81
2023/03/24 07:25:57;;;;;;;1.00;0.30;;;11.30;99.90;;;;;;5036468;28;20041;-81
2023/03/24 07:28:23;;;;;;;1.50;0.57;;;11.30;99.90;;;;;;5021469;28;20128;-81
2023/03/24 07:30:48;;;;;;;0.10;0.10;;;11.40;99.90;;;;;;5017168;28;20052;-80
2023/03/24 07:33:14;;;;;;;0.00;0.00;;;11.40;99.90;;;;;;5023732;28;20061;-81
2023/03/24 07:35:40;;;;;;;0.00;0.00;;;11.50;99.90;;;;;;5017818;28;20125;-81
2023/03/24 07:38:06;;;;;;;1.02;0.52;;;11.40;99.90;;;;;;4991692;28;20131;-80
2023/03/24 07:40:34;;;;;;;0.15;0.00;;;11.40;99.90;;;;;;5034373;28;20055;-80
2023/03/24 07:43:01;;;;;;;0.00;0.00;;;11.40;99.90;;;;;;5005980;28;20085;-81
2023/03/24 07:45:27;;;;;;;0.00;0.00;;;11.30;99.90;;;;;;5020908;28;20048;-80
2023/03/24 07:47:53;;;;;;;0.10;0.10;;;11.30;99.90;;;;;;5054375;28;20052;-80
2023/03/24 07:50:19;;;;;;;0.00;0.00;;;11.20;99.90;;;;;;5056477;28;20091;-80
2023/03/24 07:52:49;;;;;;;0.00;0.00;;;11.20;99.90;;;;;;5038294;28;20057;-80
2023/03/24 07:55:15;;;;;;;1.65;0.30;;;11.20;99.90;;;;;;5022668;28;20056;-80
2023/03/24 07:57:48;;;;;;;0.00;0.00;;;11.20;99.90;;;;;;5021922;28;20052;-80
2023/03/24 08:00:16;;;;;;;0.00;0.00;;;11.30;99.90;;;;;;5038561;28;20481;-80
2023/03/24 08:02:44;;;;;;;0.10;0.08;;;11.30;99.90;;;;;;5038316;28;20512;-80
2023/03/24 08:05:13;;;;;;;0.10;0.10;;;11.40;99.90;;;;;;5021664;28;20091;-80
2023/03/24 08:07:43;;;;;;;0.00;0.00;;;11.50;99.90;;;;;;5038619;28;20087;-80
2023/03/24 08:10:11;;;;;;;12.15;0.63;;;11.60;99.90;;;;;;5038390;28;20040;-80
2023/03/24 08:12:37;;;;;;;0.00;0.00;;;11.90;99.90;;;;;;5038494;28;20481;-79
2023/03/24 08:15:04;;;;;;;0.43;0.32;;;12.00;99.90;;;;;;5038036;28;20064;-80
2023/03/24 08:17:31;;;;;;;0.00;0.00;;;12.00;99.90;;;;;;5022154;28;20057;-80
2023/03/24 08:19:57;;;;;;;0.10;0.10;;;11.90;99.90;;;;;;5005540;28;20135;-80
2023/03/24 08:22:22;;;;;;;0.22;0.22;;;11.80;99.90;;;;;;5038197;28;20140;-80
2023/03/24 08:24:48;;;;;;;0.85;0.52;;;11.80;99.90;;;;;;5055764;28;20462;-80
2023/03/24 08:27:15;;;;;;;1.10;0.52;;;11.90;99.90;;;;;;5037554;28;20045;-80
2023/03/24 08:29:41;;;;;;;0.10;0.10;;;12.00;99.90;;;;;;5005377;28;20485;-81
2023/03/24 08:32:07;;;;;;;0.05;0.05;;;12.10;99.90;;;;;;5055642;28;20107;-80
2023/03/24 08:34:33;;;;;;;0.00;0.00;;;12.30;99.90;;;;;;5021442;28;20496;-81
2023/03/24 08:36:59;;;;;;;0.00;0.00;;;12.50;99.90;;;;;;5021604;28;20131;-80
2023/03/24 08:39:24;;;;;;;0.40;0.40;;;12.80;99.90;;;;;;5055362;28;20447;-80
2023/03/24 08:41:50;;;;;;;2.17;0.47;;;13.10;99.90;;;;;;5021027;28;20047;-80
2023/03/24 08:44:16;;;;;;;0.35;0.35;;;13.30;99.90;;;;;;5021031;28;20044;-80
2023/03/24 08:46:42;;;;;;;0.13;0.13;;;13.40;99.90;;;;;;5038294;28;20045;-82
2023/03/24 08:49:08;;;;;;;0.20;0.20;;;13.30;99.90;;;;;;5021279;28;20048;-83
2023/03/24 08:51:34;;;;;;;0.47;0.47;;;13.20;99.90;;;;;;5021169;28;20110;-82
2023/03/24 08:54:00;;;;;;;0.50;0.17;;;13.20;99.90;;;;;;5036990;28;20505;-82
2023/03/24 08:56:26;;;;;;;1.38;0.75;;;13.10;99.90;;;;;;5036803;28;20048;-82
2023/03/24 08:58:52;;;;;;;0.05;0.05;;;12.90;99.90;;;;;;5021094;28;20059;-82
2023/03/24 09:01:19;;;;;;;0.20;0.20;;;12.80;99.90;;;;;;5037896;28;20439;-83
2023/03/24 09:03:45;;;;;;;0.00;0.00;;;12.60;99.90;;;;;;5021204;28;20048;-86
2023/03/24 09:06:11;;;;;;;0.40;0.40;;;12.60;99.90;;;;;;5020587;28;20076;-86
2023/03/24 09:08:37;;;;;;;2.78;0.30;;;12.70;99.90;;;;;;5020849;28;20057;-86
2023/03/24 09:11:04;;;;;;;1.48;0.52;;;12.60;99.90;;;;;;5037110;28;20106;-87
2023/03/24 09:13:30;;;;;;;3.00;0.75;;;12.50;99.90;;;;;;5037071;28;20041;-87
2023/03/24 09:16:01;;;;;;;0.10;0.10;;;12.60;99.90;;;;;;5036858;28;20107;-86
2023/03/24 09:18:28;;;;;;;0.13;0.13;;;12.70;99.90;;;;;;5020538;28;20060;-82
2023/03/24 09:20:54;;;;;;;0.00;0.00;;;13.00;99.90;;;;;;5020552;28;20140;-87
2023/03/24 09:23:20;;;;;;;3.40;0.52;;;13.30;99.90;;;;;;5021104;28;20132;-90
2023/03/24 09:25:53;;;;;;;0.30;0.13;;;13.40;99.90;;;;;;5037032;28;20107;-94
2023/03/24 09:28:20;;;;;;;0.00;0.00;;;13.60;99.90;;;;;;5019804;28;20095;-88
2023/03/24 09:30:46;;;;;;;0.43;0.20;;;13.60;99.90;;;;;;5036892;28;20079;-82
2023/03/24 09:33:12;;;;;;;0.15;0.15;;;13.80;99.90;;;;;;5036772;28;20079;-84
2023/03/24 09:35:38;;;;;;;0.00;0.00;;;14.00;99.90;;;;;;5036809;28;20135;-83
2023/03/24 09:38:04;;;;;;;0.30;0.10;;;13.90;99.90;;;;;;5019643;28;20044;-84
2023/03/24 09:40:36;;;;;;;0.22;0.22;;;13.80;99.90;;;;;;5020399;28;20048;-84
2023/03/24 09:43:05;;;;;;;2.10;1.02;;;13.80;99.90;;;;;;5018063;28;20056;-84
2023/03/24 09:45:40;;;;;;;0.40;0.40;;;13.60;99.90;;;;;;5038708;28;20076;-84
2023/03/24 09:48:40;;;;;;;0.20;0.20;;;13.50;99.90;;;;;;5033672;28;20045;-84
2023/03/24 09:51:11;;;;;;;0.08;0.08;;;13.40;99.90;;;;;;5027085;28;20088;-84
2023/03/24 09:53:59;;;;;;;0.00;0.00;;;13.50;99.90;;;;;;5035841;28;20091;-84
2023/03/24 09:56:28;;;;;;;1.10;0.20;;;13.80;99.90;;;;;;5047138;28;20041;-84
2023/03/24 09:59:03;;;;;;;0.10;0.10;;;14.10;99.90;;;;;;5045876;28;20080;-83
2023/03/24 10:01:29;;;;;;;1.40;0.32;;;14.20;99.90;;;;;;5053577;28;20528;-84
2023/03/24 10:03:57;;;;;;;0.00;0.00;;;14.30;99.90;;;;;;5051218;28;20041;-83
2023/03/24 10:06:27;;;;;;;0.00;0.00;;;14.50;99.90;;;;;;5041486;28;20045;-83
2023/03/24 10:09:13;;;;;;;0.00;0.00;;;14.70;99.90;;;;;;5026595;28;20420;-84
2023/03/24 10:11:54;;;;;;;0.10;0.10;;;14.90;99.90;;;;;;5044278;28;20052;-85
2023/03/24 10:14:38;;;;;;;0.35;0.28;;;15.00;99.90;;;;;;5036138;28;20076;-85
2023/03/24 10:17:07;;;;;;;0.57;0.03;;;14.80;99.90;;;;;;5047042;28;20057;-84
2023/03/24 10:19:46;;;;;;;0.00;0.00;;;14.90;99.90;;;;;;5021247;28;20131;-86
2023/03/24 10:22:43;;;;;;;0.38;0.20;;;15.10;99.90;;;;;;5048323;28;20106;-85
2023/03/24 10:25:37;;;;;;;0.00;0.00;;;15.00;99.90;;;;;;5042569;28;20045;-85
2023/03/24 10:28:26;;;;;;;0.00;0.00;;;15.20;99.90;;;;;;5014132;28;20057;-85
2023/03/24 10:30:55;;;;;;;0.13;0.13;;;15.30;99.90;;;;;;5030475;28;20061;-84
2023/03/24 10:33:21;;;;;;;0.05;0.00;;;15.40;99.90;;;;;;5032091;28;20081;-86
2023/03/24 10:36:10;;;;;;;0.00;0.00;;;15.50;99.90;;;;;;5019289;28;20083;-86
2023/03/24 10:38:35;;;;;;;0.25;0.15;;;15.70;99.90;;;;;;5039992;28;20136;-85
2023/03/24 10:41:01;;;;;;;0.00;0.00;;;15.90;99.90;;;;;;5045951;28;20072;-85
2023/03/24 10:43:28;;;;;;;0.00;0.00;;;15.80;99.90;;;;;;5021137;28;20056;-84
2023/03/24 10:45:56;;;;;;;0.05;0.05;;;15.60;99.90;;;;;;5033932;28;20040;-84
2023/03/24 10:48:43;;;;;;;0.00;0.00;;;15.60;99.90;;;;;;5025294;28;20044;-83
2023/03/24 10:51:31;;;;;;;0.20;0.20;;;15.70;99.90;;;;;;5044546;28;20083;-83
2023/03/24 10:54:24;;;;;;;0.00;0.00;;;15.70;99.90;;;;;;5023377;28;20053;-83
2023/03/24 10:56:51;;;;;;;1.45;0.22;;;15.60;99.90;;;;;;5034299;28;20110;-84
2023/03/24 10:59:24;;;;;;;0.10;0.10;;;15.70;99.90;;;;;;5039713;28;20131;-83
2023/03/24 11:01:59;;;;;;;1.45;0.55;;;15.70;99.90;;;;;;5039137;28;20081;-84
2023/03/24 11:04:26;;;;;;;0.00;0.00;;;15.80;99.90;;;;;;5039461;28;20081;-84
2023/03/24 11:07:04;;;;;;;0.00;0.00;;;16.00;99.90;;;;;;5022637;28;20037;-84
2023/03/24 11:09:39;;;;;;;0.80;0.52;;;16.20;99.90;;;;;;5022731;28;20041;-85
2023/03/24 11:12:23;;;;;;;0.00;0.00;;;16.30;99.90;;;;;;5039284;28;20049;-84
2023/03/24 11:14:49;;;;;;;0.00;0.00;;;16.30;99.90;;;;;;5039727;28;20057;-84
2023/03/24 11:17:15;;;;;;;0.00;0.00;;;16.00;99.90;;;;;;5022735;28;20178;-84
2023/03/24 11:19:56;;;;;;;0.00;0.00;;;15.70;99.90;;;;;;5039418;28;20549;-85
2023/03/24 11:22:22;;;;;;;0.00;0.00;;;15.50;99.90;;;;;;5039332;28;20051;-84
2023/03/24 11:24:51;;;;;;;0.75;0.63;;;15.20;99.90;;;;;;5006487;28;20095;-85
2023/03/24 11:27:18;;;;;;;0.00;0.00;;;15.10;99.90;;;;;;5021913;28;20044;-85
2023/03/24 11:29:50;;;;;;;0.00;0.00;;;15.10;99.90;;;;;;5039237;28;20053;-85
2023/03/24 11:32:28;;;;;;;0.00;0.00;;;15.30;99.90;;;;;;5039338;28;20047;-84
2023/03/24 11:35:04;;;;;;;0.10;0.10;;;15.40;99.90;;;;;;5039075;28;20049;-84
2023/03/24 11:37:33;;;;;;;0.00;0.00;;;15.70;99.90;;;;;;5039046;28;20099;-84
2023/03/24 11:40:11;;;;;;;0.00;0.00;;;16.00;99.90;;;;;;5019334;28;20049;-83
2023/03/24 11:42:42;;;;;;;0.00;0.00;;;16.30;99.90;;;;;;5020837;28;20090;-86
2023/03/24 11:45:22;;;;;;;0.00;0.00;;;16.70;99.90;;;;;;5018655;28;20041;-84
2023/03/24 11:47:51;;;;;;;0.28;0.20;;;16.90;99.90;;;;;;5032239;28;20049;-85
2023/03/24 11:50:23;;;;;;;0.38;0.38;;;16.90;99.90;;;;;;5040747;28;20045;-83
2023/03/24 11:53:00;;;;;;;0.20;0.20;;;16.80;99.90;;;;;;5036747;28;20043;-84
2023/03/24 11:56:15;;;;;;;0.00;0.00;;;16.90;99.90;;;;;;5028942;28;20053;-83
2023/03/24 11:59:13;;;;;;;0.75;0.43;;;16.70;99.90;;;;;;4999062;28;20041;-90
2023/03/24 12:02:12;;;;;;;0.10;0.00;;;16.30;99.90;;;;;;5023719;28;20080;-84
2023/03/24 12:05:01;;;;;;;0.00;0.00;;;15.80;99.90;;;;;;4990399;28;20044;-91
2023/03/24 12:07:36;;;;;;;0.20;0.20;;;15.30;99.90;;;;;;5038548;28;20489;-85
2023/03/24 12:10:25;;;;;;;1.85;0.52;;;15.20;99.90;;;;;;5050682;28;20049;-86
2023/03/24 12:12:57;;;;;;;0.10;0.10;;;14.90;99.90;;;;;;5016858;28;20045;-87
2023/03/24 12:16:08;;;;;;;0.00;0.00;;;14.80;99.90;;;;;;5047968;28;20103;-85
2023/03/24 12:19:12;;;;;;;0.00;0.00;;;15.10;99.90;;;;;;5037949;28;20087;-85
2023/03/24 12:21:43;;;;;;;0.03;0.03;;;15.60;99.90;;;;;;5030342;28;20049;-87
2023/03/24 12:24:34;;;;;;;0.35;0.35;;;16.00;99.80;;;;;;5024825;28;20405;-86
2023/03/24 12:27:00;;;;;;;0.00;0.00;;;16.30;99.40;;;;;;5050540;28;20106;-86
2023/03/24 12:29:41;;;;;;;0.00;0.00;;;16.60;98.00;;;;;;5045025;28;20053;-87
2023/03/24 12:32:44;;;;;;;0.70;0.25;;;16.90;96.90;;;;;;5024861;28;20041;-86
2023/03/24 12:35:33;;;;;;;0.43;0.43;;;17.10;97.50;;;;;;5014861;28;20070;-87
2023/03/24 12:38:17;;;;;;;0.00;0.00;;;17.40;96.80;;;;;;5019688;28;20103;-86
2023/03/24 12:41:04;;;;;;;0.73;0.43;;;17.70;97.00;;;;;;5024512;28;20507;-85
2023/03/24 12:43:55;;;;;;;0.00;0.00;;;17.60;95.20;;;;;;5029719;28;20298;-87
2023/03/24 12:46:33;;;;;;;0.00;0.00;;;17.40;94.50;;;;;;5051825;28;20060;-86
2023/03/24 12:49:35;;;;;;;0.15;0.15;;;17.40;95.10;;;;;;5037461;28;20040;-86
2023/03/24 12:52:15;;;;;;;0.00;0.00;;;17.20;94.60;;;;;;4980898;28;20104;-86
2023/03/24 12:54:47;;;;;;;1.27;0.35;;;17.00;94.90;;;;;;5013845;28;20049;-86
2023/03/24 12:57:16;;;;;;;0.00;0.00;;;16.80;94.90;;;;;;5034182;28;20033;-87
2023/03/24 13:00:04;;;;;;;0.00;0.00;;;16.60;95.60;;;;;;5033904;28;20042;-86
2023/03/24 13:02:58;;;;;;;0.00;0.00;;;16.60;96.60;;;;;;5017438;28;20055;-86
2023/03/24 13:05:30;;;;;;;0.10;0.00;;;16.60;96.70;;;;;;5032455;28;20059;-86
2023/03/24 13:08:01;;;;;;;0.10;0.10;;;16.80;96.60;;;;;;5017620;28;20124;-83
2023/03/24 13:10:39;;;;;;;0.00;0.00;;;16.90;96.90;;;;;;5016998;28;20049;-83
2023/03/24 13:13:20;;;;;;;0.00;0.00;;;16.90;96.00;;;;;;5033711;28;20493;-86
2023/03/24 13:15:51;;;;;;;0.00;0.00;;;16.80;95.50;;;;;;5016693;28;20037;-86